Time;durP1;ratioP1;P1;durP2;ratioP2;P2;SDS_P1;SDS_P2;PMS_P1;PMS_P2;Temp;Humidity;BMP_temperature;BMP_pressure;BME280_temperature;BME280_humidity;BME280_pressure;Samples;Min_cycle;Max_cycle;Signal;HPM_P1;HPM_P2
2021/09/04 00:00:32;;;;;;;15.32;8.25;;;;;;;21.73;62.61;98682.66;5097329;28;20081;-49
2021/09/04 00:02:58;;;;;;;11.13;5.95;;;;;;;22.17;61.46;98677.63;5115743;28;20077;-49
2021/09/04 00:05:24;;;;;;;13.35;4.80;;;;;;;22.52;60.17;98680.09;5115627;28;20028;-49
2021/09/04 00:07:50;;;;;;;10.05;6.40;;;;;;;22.70;59.67;98672.50;5115590;28;20458;-49
2021/09/04 00:10:16;;;;;;;7.65;5.47;;;;;;;22.84;58.91;98672.63;5097165;28;20024;-49
2021/09/04 00:12:41;;;;;;;11.70;5.78;;;;;;;22.76;58.74;98666.00;5115420;28;20416;-49
2021/09/04 00:15:08;;;;;;;6.82;5.32;;;;;;;22.68;58.63;98674.66;5115444;28;20560;-48
2021/09/04 00:17:34;;;;;;;11.32;4.20;;;;;;;22.62;58.69;98673.88;5115370;28;20439;-49
2021/09/04 00:19:59;;;;;;;9.18;4.57;;;;;;;22.58;58.79;98670.16;5115387;28;20023;-49
2021/09/04 00:22:26;;;;;;;12.50;6.50;;;;;;;22.83;58.74;98666.47;5114727;28;20493;-49
2021/09/04 00:24:52;;;;;;;8.70;4.03;;;;;;;23.00;57.79;98665.25;5115303;28;20388;-49
2021/09/04 00:27:18;;;;;;;11.93;4.90;;;;;;;23.10;57.45;98665.19;5096884;28;20036;-49
2021/09/04 00:29:43;;;;;;;12.57;6.85;;;;;;;23.18;57.49;98664.59;5115147;28;20015;-49
2021/09/04 00:32:09;;;;;;;12.40;5.40;;;;;;;23.34;57.24;98662.50;5115077;28;20489;-49
2021/09/04 00:34:35;;;;;;;8.27;4.90;;;;;;;23.43;56.66;98663.50;5115307;28;20023;-49
2021/09/04 00:37:01;;;;;;;9.32;7.45;;;;;;;23.37;56.69;98661.97;5115012;28;20027;-49
2021/09/04 00:39:27;;;;;;;9.18;5.10;;;;;;;23.35;57.17;98666.00;5096753;28;20103;-49
2021/09/04 00:41:53;;;;;;;9.13;4.65;;;;;;;23.46;56.58;98656.75;5115214;28;20168;-49
2021/09/04 00:44:21;;;;;;;11.98;4.95;;;;;;;23.55;56.44;98649.69;5096564;28;20529;-49
2021/09/04 00:46:47;;;;;;;13.68;5.65;;;;;;;23.63;56.13;98657.09;5114844;28;20030;-49
2021/09/04 00:49:13;;;;;;;7.35;4.68;;;;;;;23.69;56.06;98650.59;5114782;28;20027;-49
2021/09/04 00:51:39;;;;;;;8.32;4.30;;;;;;;23.62;56.07;98657.38;5114698;28;20020;-49
2021/09/04 00:54:07;;;;;;;8.25;3.83;;;;;;;23.55;56.00;98655.06;5114714;28;20125;-49
2021/09/04 00:56:33;;;;;;;8.50;3.83;;;;;;;23.53;55.99;98652.66;5114643;28;20489;-49
2021/09/04 00:59:06;;;;;;;8.32;3.97;;;;;;;23.64;55.84;98653.34;5096394;28;20114;-49
2021/09/04 01:01:32;;;;;;;12.00;7.32;;;;;;;23.70;55.47;98652.19;5096248;28;20028;-49
2021/09/04 01:03:58;;;;;;;12.98;4.35;;;;;;;23.76;55.48;98654.81;5114570;28;20019;-49
2021/09/04 01:06:24;;;;;;;5.43;3.50;;;;;;;23.78;54.96;98658.81;5114530;28;20020;-49
2021/09/04 01:08:50;;;;;;;10.40;7.90;;;;;;;23.60;55.27;98648.84;5114241;28;20031;-49
2021/09/04 01:11:16;;;;;;;8.80;7.22;;;;;;;23.38;55.79;98652.03;5096058;28;20388;-49
2021/09/04 01:13:42;;;;;;;8.18;6.32;;;;;;;23.22;56.48;98654.91;5114344;28;20019;-49
2021/09/04 01:16:08;;;;;;;8.13;4.97;;;;;;;23.25;56.69;98646.28;5095905;28;20028;-49
2021/09/04 01:18:34;;;;;;;8.02;6.72;;;;;;;23.29;56.90;98643.84;5114268;28;20043;-49
2021/09/04 01:21:05;;;;;;;9.55;8.32;;;;;;;23.29;56.83;98649.19;5088630;28;20498;-48
2021/09/04 01:23:31;;;;;;;8.18;5.47;;;;;;;23.30;56.64;98654.28;5072242;28;20039;-49
2021/09/04 01:26:02;;;;;;;10.30;4.13;;;;;;;23.40;56.45;98652.56;5072179;28;20032;-49
2021/09/04 01:28:27;;;;;;;38.53;25.25;;;;;;;23.43;56.63;98636.72;5073509;28;20028;-49
2021/09/04 01:30:53;;;;;;;6.75;4.07;;;;;;;23.57;56.31;98639.50;5073387;28;20021;-49
2021/09/04 01:33:19;;;;;;;6.30;4.45;;;;;;;23.53;56.47;98641.94;5073280;28;20024;-49
2021/09/04 01:35:44;;;;;;;23.00;16.80;;;;;;;23.56;56.33;98632.53;5073559;28;20078;-49
2021/09/04 01:38:10;;;;;;;10.98;6.07;;;;;;;23.56;56.30;98639.78;5073247;28;20067;-49
2021/09/04 01:40:39;;;;;;;9.10;6.55;;;;;;;23.54;56.24;98637.38;5073227;28;20505;-49
2021/09/04 01:43:04;;;;;;;9.65;6.80;;;;;;;23.48;56.26;98639.34;5073160;28;20028;-49
2021/09/04 01:45:30;;;;;;;7.65;3.80;;;;;;;23.36;56.16;98638.91;5073126;28;20031;-49
2021/09/04 01:47:55;;;;;;;5.75;4.28;;;;;;;23.05;56.50;98639.25;5073102;28;20035;-49
2021/09/04 01:50:21;;;;;;;9.23;6.05;;;;;;;22.76;57.46;98639.25;5071746;28;20441;-49
2021/09/04 01:52:47;;;;;;;10.27;4.28;;;;;;;22.49;58.12;98640.53;5072910;28;20025;-49
2021/09/04 01:55:16;;;;;;;7.30;4.80;;;;;;;22.23;58.91;98639.09;5072877;28;20402;-49
2021/09/04 01:57:43;;;;;;;5.82;4.30;;;;;;;22.04;58.96;98644.31;5072846;28;20024;-49
2021/09/04 02:00:11;;;;;;;7.50;5.43;;;;;;;21.83;59.57;98648.94;5071485;28;20020;-49
2021/09/04 02:02:37;;;;;;;17.75;15.27;;;;;;;21.65;60.94;98643.16;5071483;28;20032;-49
2021/09/04 02:05:05;;;;;;;14.32;9.13;;;;;;;21.86;61.04;98640.41;5072649;28;20024;-49
2021/09/04 02:07:30;;;;;;;11.07;6.68;;;;;;;22.08;60.80;98646.13;5072579;28;20067;-49
2021/09/04 02:09:56;;;;;;;10.77;5.18;;;;;;;22.11;60.35;98645.59;5071343;28;20440;-49
2021/09/04 02:12:22;;;;;;;16.80;14.05;;;;;;;22.28;60.17;98650.59;5071102;28;20036;-49
2021/09/04 02:14:47;;;;;;;11.57;10.40;;;;;;;22.47;59.30;98650.72;5071178;28;20111;-49
2021/09/04 02:17:13;;;;;;;11.23;6.80;;;;;;;22.60;59.24;98643.94;5071176;28;20036;-49
2021/09/04 02:19:39;;;;;;;10.20;6.25;;;;;;;22.81;58.54;98641.88;5070486;28;20103;-48
2021/09/04 02:22:04;;;;;;;20.17;12.05;;;;;;;22.99;57.79;98647.59;5071012;28;20463;-49
2021/09/04 02:24:30;;;;;;;8.63;5.80;;;;;;;23.13;57.37;98641.31;5072419;28;20020;-49
2021/09/04 02:26:57;;;;;;;18.00;10.85;;;;;;;23.25;57.25;98638.25;5072310;28;20395;-49
2021/09/04 02:29:23;;;;;;;8.25;4.85;;;;;;;23.38;57.00;98644.00;5072233;28;20032;-49
2021/09/04 02:31:48;;;;;;;7.88;5.03;;;;;;;23.48;56.55;98644.69;5072203;28;20020;-49
2021/09/04 02:34:14;;;;;;;11.77;5.57;;;;;;;23.43;56.29;98639.38;5072183;28;20487;-49
2021/09/04 02:36:40;;;;;;;7.45;6.00;;;;;;;23.33;56.45;98636.84;5070877;28;20207;-49
2021/09/04 02:39:06;;;;;;;8.15;4.25;;;;;;;23.24;56.39;98638.53;5070804;28;20379;-49
2021/09/04 02:41:31;;;;;;;7.28;4.75;;;;;;;23.22;56.63;98641.50;5072085;28;20082;-49
2021/09/04 02:43:57;;;;;;;10.02;4.03;;;;;;;23.21;56.80;98637.22;5072064;28;20024;-49
2021/09/04 02:46:23;;;;;;;18.65;16.63;;;;;;;23.21;56.75;98637.22;5071953;28;20389;-49
2021/09/04 02:48:48;;;;;;;12.35;8.18;;;;;;;23.36;56.50;98636.25;5072036;28;20021;-49
2021/09/04 02:51:14;;;;;;;6.85;4.65;;;;;;;23.53;56.15;98631.22;5070643;28;20032;-49
2021/09/04 02:53:40;;;;;;;7.10;4.07;;;;;;;23.48;55.68;98633.16;5070558;28;20036;-49
2021/09/04 02:56:05;;;;;;;5.28;3.88;;;;;;;23.41;56.32;98632.72;5071861;28;20032;-49
2021/09/04 02:58:31;;;;;;;17.30;15.55;;;;;;;23.41;56.40;98636.19;5071924;28;20017;-49
2021/09/04 03:00:57;;;;;;;10.13;5.47;;;;;;;23.29;56.29;98633.91;5070514;28;20056;-49
2021/09/04 03:03:22;;;;;;;8.55;4.00;;;;;;;23.12;56.44;98636.28;5070482;28;20131;-49
2021/09/04 03:05:48;;;;;;;5.63;3.90;;;;;;;23.07;56.91;98630.97;5071820;28;20032;-49
2021/09/04 03:08:14;;;;;;;9.85;6.15;;;;;;;23.06;56.90;98627.50;5071769;28;20020;-49
2021/09/04 03:10:40;;;;;;;4.82;4.32;;;;;;;22.93;56.88;98630.78;5071759;28;20032;-49
2021/09/04 03:13:05;;;;;;;7.60;4.10;;;;;;;22.49;57.38;98623.69;5070341;28;20032;-48
2021/09/04 03:15:31;;;;;;;7.55;4.63;;;;;;;21.78;58.85;98630.28;5071683;28;20052;-48
2021/09/04 03:17:57;;;;;;;8.93;5.00;;;;;;;21.26;60.40;98633.13;5070406;28;20688;-49
2021/09/04 03:20:22;;;;;;;10.73;4.95;;;;;;;21.06;61.14;98625.16;5070360;28;20505;-49
2021/09/04 03:22:48;;;;;;;15.85;12.10;;;;;;;20.95;61.96;98624.41;5108069;28;20059;-49
2021/09/04 03:25:14;;;;;;;9.60;4.97;;;;;;;20.86;62.09;98624.13;5110791;28;20019;-49
2021/09/04 03:27:40;;;;;;;9.57;4.57;;;;;;;20.94;62.24;98628.13;5112139;28;20028;-49
2021/09/04 03:30:07;;;;;;;6.15;4.57;;;;;;;21.10;61.97;98619.00;5112036;28;20028;-49
2021/09/04 03:32:33;;;;;;;9.75;5.35;;;;;;;21.34;61.78;98627.22;5116022;28;20051;-49
2021/09/04 03:34:58;;;;;;;7.13;4.53;;;;;;;21.64;61.03;98630.88;5097971;28;20097;-48
2021/09/04 03:37:24;;;;;;;6.38;3.80;;;;;;;21.85;60.76;98625.44;5116180;28;20019;-48
2021/09/04 03:39:50;;;;;;;8.70;4.38;;;;;;;22.11;59.93;98620.72;5097886;28;20035;-49
2021/09/04 03:42:16;;;;;;;13.48;5.18;;;;;;;22.25;59.55;98623.59;5097799;28;20023;-49
2021/09/04 03:44:41;;;;;;;5.85;4.07;;;;;;;22.25;59.56;98619.06;5097696;28;20050;-48
2021/09/04 03:47:07;;;;;;;8.55;3.67;;;;;;;22.18;59.54;98621.22;5116057;28;20019;-49
2021/09/04 03:49:33;;;;;;;8.02;3.65;;;;;;;22.01;59.61;98620.78;5097685;28;20069;-49
2021/09/04 03:51:58;;;;;;;9.98;4.80;;;;;;;21.50;60.57;98622.66;5115830;28;20503;-49
2021/09/04 03:54:27;;;;;;;15.43;6.40;;;;;;;21.29;61.62;98616.56;5097818;28;20051;-49
2021/09/04 03:56:53;;;;;;;7.68;4.68;;;;;;;21.08;61.72;98615.03;5097479;28;20563;-49
2021/09/04 03:59:20;;;;;;;9.25;5.55;;;;;;;20.87;62.41;98614.28;5097450;28;20114;-48
2021/09/04 04:01:47;;;;;;;16.27;6.15;;;;;;;20.80;62.84;98627.06;5115728;28;20495;-49
2021/09/04 04:04:13;;;;;;;5.97;4.68;;;;;;;20.86;63.04;98616.13;5115711;28;20505;-49
2021/09/04 04:06:39;;;;;;;5.85;4.10;;;;;;;20.78;62.69;98618.53;5115692;28;20020;-49
2021/09/04 04:09:04;;;;;;;10.27;4.60;;;;;;;20.55;63.12;98618.00;5115866;28;20397;-49
2021/09/04 04:11:30;;;;;;;5.88;4.35;;;;;;;20.46;63.43;98623.06;5115499;28;20030;-48
2021/09/04 04:13:56;;;;;;;10.45;4.20;;;;;;;20.32;63.90;98624.66;5115530;28;20032;-49
2021/09/04 04:16:22;;;;;;;7.68;4.53;;;;;;;20.40;64.29;98626.00;5097114;28;20019;-49
2021/09/04 04:18:47;;;;;;;20.20;15.10;;;;;;;20.50;64.15;98628.66;5115483;28;20106;-49
2021/09/04 04:21:13;;;;;;;11.63;6.93;;;;;;;20.82;64.17;98624.94;5115106;28;20071;-49
2021/09/04 04:23:39;;;;;;;8.18;5.60;;;;;;;21.25;62.96;98618.19;5096963;28;20042;-49
2021/09/04 04:26:05;;;;;;;10.50;5.50;;;;;;;21.25;62.24;98620.84;5096931;28;20023;-49
2021/09/04 04:28:31;;;;;;;31.40;28.17;;;;;;;21.19;62.37;98619.28;5115198;28;20409;-49
2021/09/04 04:30:57;;;;;;;10.00;5.18;;;;;;;21.00;62.40;98620.91;5096776;28;20118;-49
2021/09/04 04:33:24;;;;;;;11.45;5.18;;;;;;;20.88;63.79;98624.66;5097083;28;20074;-49
2021/09/04 04:35:49;;;;;;;12.57;7.00;;;;;;;21.42;62.92;98627.75;5115124;28;20098;-49
2021/09/04 04:38:15;;;;;;;14.43;6.00;;;;;;;21.96;61.70;98626.19;5096743;28;20563;-49
2021/09/04 04:40:41;;;;;;;9.45;6.45;;;;;;;22.34;60.29;98621.94;5115066;28;20028;-49
2021/09/04 04:43:06;;;;;;;9.05;6.10;;;;;;;22.50;59.48;98626.09;5114610;28;20031;-49
2021/09/04 04:45:32;;;;;;;10.30;4.68;;;;;;;22.63;58.74;98624.63;5114914;28;20024;-49
2021/09/04 04:48:01;;;;;;;7.95;4.70;;;;;;;22.47;58.74;98628.53;5096501;28;20019;-49
2021/09/04 04:50:26;;;;;;;13.77;5.22;;;;;;;22.12;59.23;98617.78;5096487;28;20047;-49
2021/09/04 04:52:52;;;;;;;13.25;5.57;;;;;;;21.72;59.93;98630.31;5114695;28;20019;-49
2021/09/04 04:55:18;;;;;;;16.58;8.65;;;;;;;21.77;61.26;98628.69;5114746;28;20024;-49
2021/09/04 04:57:43;;;;;;;10.75;4.75;;;;;;;22.06;60.35;98631.47;5114730;28;20485;-49
2021/09/04 05:00:10;;;;;;;7.70;4.32;;;;;;;22.24;59.81;98627.38;5114578;28;20493;-49
2021/09/04 05:02:35;;;;;;;9.82;5.05;;;;;;;22.39;59.47;98635.25;5096295;28;20024;-49
2021/09/04 05:05:01;;;;;;;8.45;5.07;;;;;;;22.60;58.89;98632.44;5114536;28;20054;-49
2021/09/04 05:07:27;;;;;;;9.77;4.90;;;;;;;22.72;58.53;98635.56;5114451;28;20501;-49
2021/09/04 05:09:53;;;;;;;8.80;4.90;;;;;;;22.85;57.98;98639.44;5096104;28;20024;-49
2021/09/04 05:12:18;;;;;;;12.60;7.53;;;;;;;22.95;57.87;98636.66;5095971;28;20114;-49
2021/09/04 05:14:44;;;;;;;12.23;7.28;;;;;;;23.07;58.06;98634.44;5114356;28;20020;-49
2021/09/04 05:17:10;;;;;;;21.17;15.30;;;;;;;23.02;59.00;98636.34;5114541;28;20039;-48
2021/09/04 05:19:36;;;;;;;14.15;8.70;;;;;;;22.76;60.89;98636.59;5114295;28;20485;-49
2021/09/04 05:22:01;;;;;;;8.07;5.75;;;;;;;22.23;62.72;98639.09;5113624;28;20051;-49
2021/09/04 05:24:27;;;;;;;22.85;20.75;;;;;;;21.77;64.13;98640.16;5114184;28;20063;-49
2021/09/04 05:26:53;;;;;;;10.25;6.05;;;;;;;21.47;64.29;98641.09;5114093;28;20023;-49
2021/09/04 05:29:19;;;;;;;12.98;11.73;;;;;;;21.39;64.60;98638.94;5095758;28;20518;-49
2021/09/04 05:31:44;;;;;;;256.88;231.50;;;;;;;21.37;64.00;98644.59;5112620;28;20484;-49
2021/09/04 05:34:10;;;;;;;63.88;57.10;;;;;;;21.44;63.83;98644.31;5112653;28;20016;-49
2021/09/04 05:36:36;;;;;;;28.88;26.10;;;;;;;21.53;63.07;98645.31;5095573;28;20512;-49
2021/09/04 05:39:02;;;;;;;34.13;30.48;;;;;;;21.65;62.69;98647.69;5113873;28;20024;-49
2021/09/04 05:41:27;;;;;;;20.88;17.90;;;;;;;21.76;62.06;98649.25;5112485;28;20088;-49
2021/09/04 05:43:53;;;;;;;9.60;6.35;;;;;;;21.62;61.37;98645.59;5113777;28;20431;-49
2021/09/04 05:46:19;;;;;;;7.32;6.25;;;;;;;21.15;62.09;98640.38;5095454;28;20024;-49
2021/09/04 05:48:44;;;;;;;13.73;7.22;;;;;;;20.89;62.96;98642.28;5113691;28;20061;-49
2021/09/04 05:51:10;;;;;;;7.38;5.60;;;;;;;20.81;63.15;98642.81;5113642;28;20035;-49
2021/09/04 05:53:38;;;;;;;15.05;6.72;;;;;;;20.91;63.00;98648.16;5094928;28;20030;-49
2021/09/04 05:56:04;;;;;;;6.93;5.97;;;;;;;20.86;63.06;98648.13;5112824;28;20489;-49
2021/09/04 05:58:30;;;;;;;9.63;5.60;;;;;;;20.79;63.38;98652.16;5095230;28;20076;-49
2021/09/04 06:00:55;;;;;;;15.88;13.00;;;;;;;20.94;63.38;98642.25;5095081;28;20034;-49
2021/09/04 06:03:21;;;;;;;9.10;5.93;;;;;;;21.41;63.57;98647.47;5112328;28;20043;-49
2021/09/04 06:05:47;;;;;;;9.40;6.35;;;;;;;21.50;63.78;98638.66;5113296;28;20016;-50
2021/09/04 06:08:12;;;;;;;7.43;4.85;;;;;;;21.53;63.65;98645.31;5113319;28;20023;-49
2021/09/04 06:10:38;;;;;;;7.60;4.85;;;;;;;21.67;62.98;98642.88;5094894;28;20371;-49
2021/09/04 06:13:04;;;;;;;9.38;5.22;;;;;;;21.82;62.56;98642.03;5113119;28;20405;-49
2021/09/04 06:15:29;;;;;;;11.18;5.90;;;;;;;22.29;61.75;98641.47;5113181;28;20513;-49
2021/09/04 06:17:55;;;;;;;335.50;286.75;;;;;;;22.69;60.14;98639.56;5094785;28;20039;-49
2021/09/04 06:20:21;;;;;;;1032.50;721.03;;;;;;;22.86;59.21;98644.50;5113020;28;20067;-49
2021/09/04 06:22:46;;;;;;;249.30;224.77;;;;;;;23.27;58.79;98646.78;5112780;28;20047;-49
2021/09/04 06:25:12;;;;;;;72.85;65.85;;;;;;;23.62;57.41;98639.41;5111649;28;20050;-49
2021/09/04 06:27:38;;;;;;;32.05;28.95;;;;;;;23.78;56.11;98642.72;5094681;28;20051;-49
2021/09/04 06:30:05;;;;;;;32.13;26.67;;;;;;;23.66;56.66;98648.50;5094553;28;20500;-49
2021/09/04 06:32:31;;;;;;;33.30;23.30;;;;;;;23.88;56.64;98641.81;5112824;28;20027;-49
2021/09/04 06:34:57;;;;;;;9.18;6.65;;;;;;;24.45;55.11;98636.44;5112875;28;20550;-49
2021/09/04 06:37:23;;;;;;;13.18;7.38;;;;;;;25.21;53.61;98637.03;5112834;28;20507;-49
2021/09/04 06:39:49;;;;;;;10.18;8.13;;;;;;;25.65;52.09;98632.13;5112690;28;20020;-49
2021/09/04 06:42:15;;;;;;;11.18;6.30;;;;;;;25.92;51.38;98634.00;5112723;28;20038;-49
2021/09/04 06:44:41;;;;;;;12.18;5.85;;;;;;;26.16;50.61;98641.81;5112752;28;20020;-49
2021/09/04 06:47:07;;;;;;;12.07;6.40;;;;;;;26.30;50.37;98634.47;5094343;28;20511;-50
2021/09/04 06:49:33;;;;;;;11.73;7.72;;;;;;;26.45;49.45;98629.81;5094350;28;20020;-50
2021/09/04 06:51:58;;;;;;;15.57;8.63;;;;;;;26.39;49.44;98636.44;5112455;28;20070;-49
2021/09/04 06:54:27;;;;;;;9.07;4.28;;;;;;;26.34;49.64;98641.91;5112555;28;20438;-49
2021/09/04 06:56:53;;;;;;;8.25;5.05;;;;;;;26.15;49.80;98644.78;5112408;28;20504;-49
2021/09/04 06:59:19;;;;;;;8.30;5.65;;;;;;;25.87;50.10;98642.94;5112441;28;20028;-49
2021/09/04 07:01:46;;;;;;;8.23;4.93;;;;;;;25.48;51.20;98651.56;5094122;28;20023;-49
2021/09/04 07:04:11;;;;;;;8.20;4.65;;;;;;;25.36;51.45;98641.31;5094101;28;20023;-49
2021/09/04 07:06:38;;;;;;;13.18;6.45;;;;;;;25.40;51.39;98649.56;5112010;28;20080;-49
2021/09/04 07:09:04;;;;;;;14.38;5.75;;;;;;;25.78;50.92;98647.44;5094063;28;20519;-49
2021/09/04 07:11:29;;;;;;;10.15;4.10;;;;;;;27.22;48.15;98649.41;5112296;28;20055;-49
2021/09/04 07:13:55;;;;;;;16.25;6.82;;;;;;;29.21;44.51;98644.41;5112085;28;20096;-49
2021/09/04 07:16:21;;;;;;;23.15;6.05;;;;;;;30.72;41.02;98634.56;5112251;28;20393;-49
2021/09/04 07:18:47;;;;;;;9.02;5.10;;;;;;;31.93;38.16;98625.19;5112210;28;20027;-49
2021/09/04 07:21:13;;;;;;;6.93;4.15;;;;;;;32.92;36.61;98631.81;5085651;28;20048;-49
2021/09/04 07:23:40;;;;;;;6.68;4.55;;;;;;;33.57;34.83;98634.13;5070352;28;20024;-49
2021/09/04 07:26:06;;;;;;;7.80;4.72;;;;;;;33.90;34.19;98632.88;5071609;28;20517;-49
2021/09/04 07:28:32;;;;;;;6.75;4.22;;;;;;;34.22;33.87;98630.06;5071629;28;20020;-49
2021/09/04 07:30:59;;;;;;;7.43;3.88;;;;;;;34.09;33.72;98632.13;5070267;28;20032;-49
2021/09/04 07:33:26;;;;;;;4.47;4.07;;;;;;;33.59;34.02;98637.28;5071479;28;20020;-49
2021/09/04 07:35:52;;;;;;;6.05;4.47;;;;;;;34.18;32.70;98640.09;5070158;28;20025;-50
2021/09/04 07:38:18;;;;;;;6.80;3.75;;;;;;;34.26;33.22;98625.47;5071749;28;20115;-49
2021/09/04 07:40:45;;;;;;;6.95;4.00;;;;;;;34.41;32.07;98630.03;5070123;28;20025;-50
2021/09/04 07:43:10;;;;;;;6.60;3.60;;;;;;;33.24;34.08;98639.94;5071452;28;20055;-49
2021/09/04 07:45:37;;;;;;;7.07;3.97;;;;;;;31.95;35.63;98631.84;5070090;28;20067;-49
2021/09/04 07:48:05;;;;;;;7.65;3.60;;;;;;;31.41;36.90;98634.88;5071439;28;20459;-49
2021/09/04 07:50:32;;;;;;;3.90;3.50;;;;;;;30.44;37.95;98632.44;5070095;28;20056;-49
2021/09/04 07:52:58;;;;;;;9.65;4.63;;;;;;;29.88;39.44;98626.53;5071288;28;20020;-50
2021/09/04 07:55:24;;;;;;;6.43;4.10;;;;;;;30.10;39.17;98641.66;5071304;28;20074;-49
2021/09/04 07:57:49;;;;;;;5.43;4.05;;;;;;;30.15;38.96;98632.56;5071332;28;20032;-49
2021/09/04 08:00:15;;;;;;;7.07;4.32;;;;;;;29.43;40.12;98646.06;5069964;28;20025;-49
2021/09/04 08:02:42;;;;;;;9.90;5.28;;;;;;;29.38;40.70;98647.03;5071230;28;20125;-49
2021/09/04 08:05:09;;;;;;;5.07;4.25;;;;;;;29.68;40.15;98650.53;5071218;28;20147;-49
2021/09/04 08:07:34;;;;;;;7.30;4.30;;;;;;;29.53;40.39;98655.72;5071182;28;20028;-49
2021/09/04 08:10:00;;;;;;;6.75;4.15;;;;;;;29.58;39.75;98659.03;5069804;28;20036;-49
2021/09/04 08:12:26;;;;;;;9.73;6.30;;;;;;;29.73;39.92;98660.38;5071123;28;20021;-49
2021/09/04 08:14:51;;;;;;;7.15;4.75;;;;;;;30.17;39.35;98657.38;5069819;28;20035;-49
2021/09/04 08:17:18;;;;;;;7.82;5.20;;;;;;;30.86;38.14;98654.00;5071199;28;20106;-49
2021/09/04 08:19:44;;;;;;;11.43;4.70;;;;;;;31.81;36.83;98659.41;5074780;28;20019;-49
2021/09/04 08:22:10;;;;;;;7.88;4.90;;;;;;;33.58;33.52;98652.00;5099449;28;20048;-49
2021/09/04 08:24:36;;;;;;;7.43;4.22;;;;;;;35.08;30.73;98647.97;5096983;28;20038;-50
2021/09/04 08:27:02;;;;;;;7.18;4.40;;;;;;;36.15;29.28;98648.75;5097050;28;20039;-50
2021/09/04 08:29:28;;;;;;;6.95;3.85;;;;;;;37.17;27.92;98640.41;5115290;28;20027;-50
2021/09/04 08:31:54;;;;;;;6.50;4.53;;;;;;;37.76;27.31;98649.38;5096694;28;20076;-52
2021/09/04 08:34:20;;;;;;;3.70;3.40;;;;;;;38.74;25.64;98651.28;5115185;28;20020;-51
2021/09/04 08:36:46;;;;;;;6.10;3.60;;;;;;;38.86;25.22;98652.88;5115104;28;20027;-51
2021/09/04 08:39:12;;;;;;;5.88;3.85;;;;;;;37.82;26.23;98658.03;5115078;28;20023;-52
2021/09/04 08:41:39;;;;;;;4.38;3.78;;;;;;;37.35;26.73;98659.69;5115014;28;20027;-52
2021/09/04 08:44:06;;;;;;;11.10;4.15;;;;;;;38.03;26.17;98656.53;5114993;28;20469;-51
2021/09/04 08:46:35;;;;;;;6.57;3.60;;;;;;;38.97;25.53;98658.38;5115157;28;20442;-51
2021/09/04 08:49:03;;;;;;;7.07;3.60;;;;;;;39.58;24.65;98655.59;5114893;28;20019;-51
2021/09/04 08:51:30;;;;;;;6.88;2.97;;;;;;;39.46;24.35;98662.31;5114809;28;20026;-52
2021/09/04 08:53:56;;;;;;;5.57;3.25;;;;;;;39.73;23.68;98668.09;5114680;28;20020;-52
2021/09/04 08:56:22;;;;;;;4.80;2.70;;;;;;;39.78;23.07;98666.13;5114756;28;20020;-52
2021/09/04 08:58:48;;;;;;;4.97;2.67;;;;;;;40.16;22.08;98667.19;5114778;28;20135;-51
2021/09/04 09:01:19;;;;;;;4.40;2.55;;;;;;;40.70;21.82;98659.41;5114612;28;20059;-51
2021/09/04 09:03:46;;;;;;;7.22;2.60;;;;;;;41.04;21.04;98660.78;5096274;28;20053;-51
2021/09/04 09:06:12;;;;;;;6.43;2.60;;;;;;;40.82;20.88;98660.94;5114472;28;20024;-51
2021/09/04 09:08:44;;;;;;;5.85;2.58;;;;;;;40.38;20.92;98656.88;5114515;28;20016;-51
2021/09/04 09:11:10;;;;;;;5.22;2.63;;;;;;;39.75;21.68;98657.50;5114447;28;20504;-51
2021/09/04 09:13:49;;;;;;;5.53;4.68;;;;;;;39.34;22.60;98649.75;5114329;28;20114;-51
2021/09/04 09:16:18;;;;;;;25.45;22.90;;;;;;;39.51;22.91;98656.41;5114349;28;20050;-51
2021/09/04 09:19:04;;;;;;;11.63;10.40;;;;;;;40.05;22.48;98650.75;5114211;28;20059;-52
2021/09/04 09:21:39;;;;;;;19.88;16.80;;;;;;;39.89;22.65;98662.19;5113568;28;20410;-52
2021/09/04 09:24:20;;;;;;;19.60;16.80;;;;;;;39.60;22.63;98655.97;5114240;28;20059;-51
2021/09/04 09:27:06;;;;;;;7.50;6.07;;;;;;;40.02;22.33;98654.28;5114156;28;20051;-52
2021/09/04 09:29:34;;;;;;;5.55;2.45;;;;;;;40.11;21.82;98646.41;5113951;28;20027;-52
2021/09/04 09:32:05;;;;;;;4.32;2.75;;;;;;;40.54;21.36;98648.13;5113937;28;20031;-51
2021/09/04 09:34:42;;;;;;;17.00;5.05;;;;;;;40.84;20.97;98652.28;5114081;28;20486;-52
2021/09/04 09:37:12;;;;;;;5.80;3.05;;;;;;;41.02;20.67;98650.16;5114014;28;20040;-52
2021/09/04 09:39:40;;;;;;;3.25;2.50;;;;;;;41.15;20.73;98655.16;5113923;28;20034;-52
2021/09/04 09:42:08;;;;;;;7.38;2.50;;;;;;;41.67;20.75;98647.59;5095518;28;20024;-51
2021/09/04 09:44:36;;;;;;;3.25;2.90;;;;;;;41.80;20.56;98650.59;5113830;28;20501;-51
2021/09/04 09:47:08;;;;;;;8.35;4.20;;;;;;;41.40;20.62;98650.22;5095710;28;20042;-51
2021/09/04 09:49:36;;;;;;;6.70;2.70;;;;;;;40.96;21.31;98643.53;5113721;28;20022;-52
2021/09/04 09:52:06;;;;;;;4.25;2.67;;;;;;;41.01;21.33;98647.81;5113471;28;20027;-52
2021/09/04 09:54:33;;;;;;;9.05;3.47;;;;;;;41.35;20.75;98650.66;5113597;28;20077;-53
2021/09/04 09:57:01;;;;;;;8.20;3.03;;;;;;;41.51;20.29;98644.59;5095537;28;20371;-52
2021/09/04 09:59:31;;;;;;;2.92;2.42;;;;;;;41.44;20.27;98633.66;5095207;28;20016;-51
2021/09/04 10:01:59;;;;;;;5.85;3.63;;;;;;;41.16;20.53;98635.47;5113457;28;20110;-51
2021/09/04 10:04:31;;;;;;;6.03;3.30;;;;;;;41.21;20.72;98637.03;5095084;28;20505;-52
2021/09/04 10:06:57;;;;;;;3.08;2.30;;;;;;;41.42;20.72;98633.28;5113419;28;20015;-51
2021/09/04 10:09:26;;;;;;;4.13;2.83;;;;;;;41.29;20.57;98633.81;5094937;28;20489;-52
2021/09/04 10:11:52;;;;;;;5.30;2.72;;;;;;;40.89;21.16;98635.31;5094813;28;20449;-51
2021/09/04 10:14:19;;;;;;;2.85;2.25;;;;;;;40.96;21.08;98635.25;5113274;28;20084;-52
2021/09/04 10:16:48;;;;;;;4.38;2.40;;;;;;;41.08;21.09;98631.22;5113179;28;20107;-52
2021/09/04 10:19:17;;;;;;;4.25;2.40;;;;;;;41.22;21.03;98622.88;5113171;28;20012;-51
2021/09/04 10:21:43;;;;;;;6.03;2.67;;;;;;;41.42;21.02;98617.53;5112783;28;20046;-52
2021/09/04 10:24:09;;;;;;;8.25;5.30;;;;;;;41.83;20.69;98629.69;5094735;28;20102;-52
2021/09/04 10:26:40;;;;;;;7.82;4.18;;;;;;;41.41;21.11;98623.44;5112965;28;20016;-52
2021/09/04 10:29:07;;;;;;;5.28;2.72;;;;;;;41.26;20.85;98623.59;5094617;28;20489;-51
2021/09/04 10:31:56;;;;;;;4.57;1.90;;;;;;;40.93;21.36;98622.31;5112848;28;20024;-52
2021/09/04 10:34:37;;;;;;;3.55;2.45;;;;;;;41.17;21.28;98614.22;5112859;28;20023;-51
2021/09/04 10:37:07;;;;;;;4.82;2.40;;;;;;;41.37;20.99;98626.25;5112818;28;20027;-53
2021/09/04 10:40:04;;;;;;;2.80;2.00;;;;;;;41.00;21.44;98619.50;5112784;28;20019;-52
2021/09/04 10:42:32;;;;;;;2.85;2.28;;;;;;;40.46;22.11;98608.13;5112506;28;20035;-51
2021/09/04 10:45:05;;;;;;;4.18;2.67;;;;;;;40.69;21.84;98613.84;5112718;28;20024;-52
2021/09/04 10:48:00;;;;;;;5.65;4.05;;;;;;;40.07;22.70;98607.16;5112722;28;20027;-52
2021/09/04 10:50:31;;;;;;;4.75;2.58;;;;;;;39.87;22.28;98601.34;5081125;28;20024;-52
2021/09/04 10:53:05;;;;;;;4.13;2.67;;;;;;;39.42;22.66;98606.59;5094241;28;20024;-51
2021/09/04 10:55:37;;;;;;;6.53;2.53;;;;;;;38.53;23.58;98608.16;5112540;28;20032;-51
2021/09/04 10:58:07;;;;;;;7.63;2.60;;;;;;;38.12;24.13;98607.69;5112503;28;20038;-51
2021/09/04 11:00:40;;;;;;;3.70;2.22;;;;;;;37.49;24.79;98612.41;5112413;28;20015;-52
2021/09/04 11:03:11;;;;;;;4.45;2.60;;;;;;;36.92;25.37;98610.06;5112496;28;20035;-52
2021/09/04 11:05:51;;;;;;;3.92;2.47;;;;;;;36.19;26.34;98610.53;5112289;28;20374;-52
2021/09/04 11:08:20;;;;;;;5.50;3.30;;;;;;;35.69;27.16;98612.63;5096218;28;20454;-49
2021/09/04 11:11:10;;;;;;;4.82;2.30;;;;;;;35.63;27.32;98611.38;5094270;28;20058;-50
2021/09/04 11:13:45;;;;;;;4.72;2.58;;;;;;;35.82;27.24;98611.25;5093932;28;20059;-49
2021/09/04 11:16:26;;;;;;;5.43;3.55;;;;;;;36.45;26.66;98611.59;5112335;28;20024;-50
2021/09/04 11:18:52;;;;;;;5.93;2.60;;;;;;;37.60;25.49;98601.56;5112209;28;20111;-52
2021/09/04 11:21:18;;;;;;;6.70;2.60;;;;;;;38.17;24.62;98596.31;5093571;28;20443;-51
2021/09/04 11:23:44;;;;;;;4.15;3.22;;;;;;;38.45;23.90;98598.31;5112251;28;20148;-52
2021/09/04 11:26:10;;;;;;;4.75;3.28;;;;;;;37.50;24.59;98598.34;5112155;28;20103;-52
2021/09/04 11:28:36;;;;;;;13.70;11.95;;;;;;;36.60;25.73;98591.41;5093972;28;20043;-52